Time;durP1;ratioP1;P1;durP2;ratioP2;P2;SDS_P1;SDS_P2;PMS_P1;PMS_P2;Temp;Humidity;BMP_temperature;BMP_pressure;BME280_temperature;BME280_humidity;BME280_pressure;Samples;Min_cycle;Max_cycle;Signal;HPM_P1;HPM_P2
2023/10/28 00:01:33;;;;;;;3.78;1.17;;;11.30;99.90;;;11.31;100.00;99048.94;5247532;28;20048;-47
2023/10/28 00:04:06;;;;;;;1.73;0.95;;;11.30;99.90;;;11.32;100.00;99050.66;5247122;28;20048;-47
2023/10/28 00:06:39;;;;;;;1.63;1.15;;;11.30;99.90;;;11.33;100.00;99051.53;5245489;28;20510;-48
2023/10/28 00:09:11;;;;;;;2.55;1.10;;;11.30;99.90;;;11.32;100.00;99050.66;5244763;28;20048;-47
2023/10/28 00:11:45;;;;;;;1.90;1.10;;;11.30;99.90;;;11.34;100.00;99048.91;5239234;28;20068;-47
2023/10/28 00:14:19;;;;;;;1.40;1.02;;;11.30;99.90;;;11.34;100.00;99059.34;5245753;28;20063;-48
2023/10/28 00:16:51;;;;;;;1.73;0.95;;;11.30;99.90;;;11.35;100.00;99055.03;5247094;28;20067;-47
2023/10/28 00:19:24;;;;;;;2.03;1.15;;;11.40;99.90;;;11.34;100.00;99059.34;5246514;28;20048;-48
2023/10/28 00:21:59;;;;;;;2.30;1.17;;;11.30;99.90;;;11.34;100.00;99054.13;5247180;28;20511;-48
2023/10/28 00:24:32;;;;;;;1.63;1.10;;;11.30;99.90;;;11.34;100.00;99061.97;5245631;28;20055;-48
2023/10/28 00:27:04;;;;;;;3.30;1.30;;;11.30;99.90;;;11.33;100.00;99061.97;5245723;28;20039;-47
2023/10/28 00:29:40;;;;;;;2.13;1.13;;;11.40;99.90;;;11.34;100.00;99061.97;5253399;28;20044;-48
2023/10/28 00:32:12;;;;;;;2.00;1.10;;;11.30;99.90;;;11.36;100.00;99062.00;5246587;28;20044;-48
2023/10/28 00:34:44;;;;;;;2.65;1.20;;;11.30;99.90;;;11.36;100.00;99056.78;5245123;28;20051;-47
2023/10/28 00:37:17;;;;;;;2.88;1.23;;;11.40;99.90;;;11.39;100.00;99056.78;5246493;28;20407;-48
2023/10/28 00:39:49;;;;;;;2.40;1.20;;;11.40;99.90;;;11.40;100.00;99050.69;5245007;28;20044;-48
2023/10/28 00:42:22;;;;;;;2.78;1.70;;;11.40;99.90;;;11.40;100.00;99045.47;5249904;28;20491;-49
2023/10/28 00:44:55;;;;;;;3.45;1.10;;;11.40;99.90;;;11.41;100.00;99044.63;5244472;28;20503;-48
2023/10/28 00:47:28;;;;;;;1.73;1.42;;;11.40;99.90;;;11.43;100.00;99061.16;5244686;28;20063;-50
2023/10/28 00:50:01;;;;;;;1.52;1.10;;;11.40;99.90;;;11.45;100.00;99050.72;5236810;28;20052;-47
2023/10/28 00:52:34;;;;;;;2.28;1.33;;;11.40;99.90;;;11.43;100.00;99060.28;5244978;28;20575;-47
2023/10/28 00:55:09;;;;;;;3.88;1.13;;;11.40;99.90;;;11.43;100.00;99055.06;5244868;28;20503;-49
2023/10/28 00:57:45;;;;;;;4.13;1.33;;;11.40;99.90;;;11.44;100.00;99055.06;5258853;28;20091;-48
2023/10/28 01:00:20;;;;;;;2.05;1.13;;;11.40;99.90;;;11.46;100.00;99057.66;5242616;28;20044;-48
2023/10/28 01:02:53;;;;;;;2.05;1.40;;;11.50;99.90;;;11.46;100.00;99052.44;5242691;28;20032;-48
2023/10/28 01:05:26;;;;;;;3.92;1.63;;;11.40;99.90;;;11.46;100.00;99055.06;5243648;28;20040;-49
2023/10/28 01:07:59;;;;;;;4.18;1.33;;;11.40;99.90;;;11.46;100.00;99058.53;5243797;28;20485;-48
2023/10/28 01:10:33;;;;;;;3.10;1.23;;;11.50;99.90;;;11.46;100.00;99052.44;5242600;28;20075;-48
2023/10/28 01:13:06;;;;;;;4.40;1.52;;;11.50;99.90;;;11.45;100.00;99054.19;5251321;28;20387;-47
2023/10/28 01:15:39;;;;;;;3.33;1.52;;;11.50;99.90;;;11.47;100.00;99060.28;5245723;28;20044;-48
2023/10/28 01:18:12;;;;;;;2.97;1.50;;;11.50;99.90;;;11.46;100.00;99053.31;5255321;28;20055;-48
2023/10/28 01:20:44;;;;;;;3.05;1.40;;;11.50;99.90;;;11.47;100.00;99052.44;5250505;28;20059;-48
2023/10/28 01:23:19;;;;;;;3.83;1.27;;;11.50;99.90;;;11.48;100.00;99050.75;5250474;28;20052;-48
2023/10/28 01:25:52;;;;;;;2.53;1.58;;;11.50;99.90;;;11.46;100.00;99053.31;5250006;28;20633;-48
2023/10/28 01:28:24;;;;;;;4.85;1.50;;;11.50;99.90;;;11.46;100.00;99058.53;5245000;28;20048;-48
2023/10/28 01:31:00;;;;;;;3.25;1.42;;;11.50;99.90;;;11.47;100.00;99056.78;5246590;28;20035;-48
2023/10/28 01:33:32;;;;;;;3.45;1.20;;;11.50;99.90;;;11.47;100.00;99060.28;5246594;28;20067;-48
2023/10/28 01:36:05;;;;;;;2.70;1.40;;;11.50;99.90;;;11.47;100.00;99048.97;5248607;28;20047;-48
2023/10/28 01:38:38;;;;;;;8.77;1.70;;;11.50;99.90;;;11.46;100.00;99045.50;5245755;28;20059;-48
2023/10/28 01:41:12;;;;;;;4.55;1.75;;;11.50;99.90;;;11.46;100.00;99050.72;5245468;28;20044;-48
2023/10/28 01:43:45;;;;;;;3.42;1.55;;;11.50;99.90;;;11.49;100.00;99057.69;5243154;28;20045;-48
2023/10/28 01:46:18;;;;;;;3.67;1.45;;;11.50;99.90;;;11.48;100.00;99049.00;5245247;28;20041;-47
2023/10/28 01:48:51;;;;;;;2.70;1.50;;;11.50;99.90;;;11.48;100.00;99055.97;5246332;28;20060;-46
2023/10/28 01:51:23;;;;;;;3.92;1.60;;;11.50;99.90;;;11.49;100.00;99055.97;5247028;28;20052;-47
2023/10/28 01:53:57;;;;;;;4.00;1.63;;;11.50;99.90;;;11.49;100.00;99055.97;5265523;28;20040;-47
2023/10/28 01:56:29;;;;;;;3.70;1.92;;;11.50;99.90;;;11.51;100.00;99074.22;5246446;28;20044;-48
2023/10/28 01:59:02;;;;;;;3.70;1.48;;;11.50;99.90;;;11.51;100.00;99079.44;5249037;28;20051;-47
2023/10/28 02:01:35;;;;;;;4.70;1.60;;;11.50;99.90;;;11.51;100.00;99082.91;5245661;28;20052;-48
2023/10/28 02:04:07;;;;;;;3.20;1.38;;;11.50;99.90;;;11.51;100.00;99082.91;5245269;28;20507;-48
2023/10/28 02:06:40;;;;;;;2.25;0.98;;;11.50;99.90;;;11.52;100.00;99089.00;5244664;28;20041;-46
2023/10/28 02:09:14;;;;;;;3.75;1.45;;;11.50;99.90;;;11.51;100.00;99082.91;5265184;28;20404;-47
2023/10/28 02:11:52;;;;;;;3.38;1.33;;;11.50;99.90;;;11.54;100.00;99076.81;5242817;28;20550;-47
2023/10/28 02:14:25;;;;;;;3.38;1.50;;;11.50;99.90;;;11.54;100.00;99066.38;5245801;28;20056;-48
2023/10/28 02:16:58;;;;;;;2.53;1.40;;;11.50;99.90;;;11.54;100.00;99080.34;5250334;28;20036;-48
2023/10/28 02:19:32;;;;;;;2.25;1.35;;;11.50;99.90;;;11.55;100.00;99087.28;5251475;28;20064;-46
2023/10/28 02:22:09;;;;;;;1.20;1.10;;;11.50;99.90;;;11.55;100.00;99079.47;5274517;28;20130;-47
2023/10/28 02:24:43;;;;;;;2.05;1.20;;;11.60;99.90;;;11.56;100.00;99081.19;5246549;28;20052;-47
2023/10/28 02:27:15;;;;;;;1.85;1.02;;;11.50;99.90;;;11.57;100.00;99082.94;5248855;28;20070;-48
2023/10/28 02:29:48;;;;;;;2.65;1.25;;;11.60;99.90;;;11.58;100.00;99079.47;5250965;28;20044;-48
2023/10/28 02:32:20;;;;;;;1.65;1.10;;;11.60;99.90;;;11.58;100.00;99084.69;5251714;28;20036;-49
2023/10/28 02:34:52;;;;;;;2.90;1.30;;;11.60;99.90;;;11.56;100.00;99089.03;5246757;28;20541;-48
2023/10/28 02:37:26;;;;;;;2.70;1.13;;;11.60;99.90;;;11.55;100.00;99087.28;5250389;28;20102;-48
2023/10/28 02:40:04;;;;;;;1.80;1.08;;;11.60;99.90;;;11.55;100.00;99091.63;5251281;28;20067;-48
2023/10/28 02:42:36;;;;;;;1.30;0.85;;;11.60;99.90;;;11.53;100.00;99083.78;5244925;28;20059;-48
2023/10/28 02:45:09;;;;;;;3.15;1.20;;;11.50;99.90;;;11.55;100.00;99084.69;5256246;28;20039;-47
2023/10/28 02:47:42;;;;;;;1.65;1.00;;;11.60;99.90;;;11.55;100.00;99094.25;5245361;28;20075;-48
2023/10/28 02:50:19;;;;;;;1.38;1.13;;;11.50;99.90;;;11.51;100.00;99085.53;5248424;28;20043;-47
2023/10/28 02:52:53;;;;;;;1.27;0.98;;;11.50;99.90;;;11.50;100.00;99089.00;5246433;28;20290;-48
2023/10/28 02:55:27;;;;;;;2.85;1.00;;;11.50;99.90;;;11.48;100.00;99090.75;5246542;28;20049;-47
2023/10/28 02:58:02;;;;;;;2.55;1.08;;;11.50;99.90;;;11.44;100.00;99088.09;5247766;28;20515;-48
2023/10/28 03:00:35;;;;;;;1.48;1.33;;;11.40;99.90;;;11.39;100.00;99088.94;5246954;28;20545;-47
2023/10/28 03:03:07;;;;;;;1.70;0.90;;;11.40;99.90;;;11.36;100.00;99088.06;5248851;28;20047;-47
2023/10/28 03:05:39;;;;;;;1.02;0.88;;;11.40;99.90;;;11.33;100.00;99088.91;5245434;28;20522;-47
2023/10/28 03:08:15;;;;;;;2.20;1.35;;;11.40;99.90;;;11.31;100.00;99092.41;5248596;28;20052;-47
2023/10/28 03:10:48;;;;;;;1.58;0.80;;;11.30;99.90;;;11.28;100.00;99095.88;5245773;28;20044;-47
2023/10/28 03:13:21;;;;;;;1.50;0.90;;;11.30;99.90;;;11.27;100.00;99093.22;5248400;28;20052;-47
2023/10/28 03:15:53;;;;;;;0.95;0.85;;;11.30;99.90;;;11.26;100.00;99096.72;5246863;28;20056;-48
2023/10/28 03:18:26;;;;;;;1.20;0.63;;;11.30;99.90;;;11.25;100.00;99101.06;5247587;28;20525;-47
2023/10/28 03:20:58;;;;;;;0.93;0.82;;;11.20;99.90;;;11.26;100.00;99096.72;5246176;28;20415;-47
2023/10/28 03:23:31;;;;;;;1.95;0.98;;;11.30;99.90;;;11.27;100.00;99101.06;5246530;28;20044;-47
2023/10/28 03:26:08;;;;;;;1.05;0.90;;;11.30;99.90;;;11.28;100.00;99097.59;5245335;28;20139;-47
2023/10/28 03:28:40;;;;;;;1.02;0.93;;;11.30;99.90;;;11.29;100.00;99099.34;5246686;28;21200;-49
2023/10/28 03:31:14;;;;;;;1.20;1.10;;;11.30;99.90;;;11.28;100.00;99095.88;5244217;28;20056;-46
2023/10/28 03:33:47;;;;;;;2.75;1.77;;;11.30;99.90;;;11.27;100.00;99098.44;5246030;28;20055;-46
2023/10/28 03:36:23;;;;;;;3.50;1.98;;;11.30;99.90;;;11.25;100.00;99103.66;5245099;28;20064;-47
2023/10/28 03:38:56;;;;;;;2.10;1.83;;;11.30;99.90;;;11.22;100.00;99102.78;5247770;28;20089;-46
2023/10/28 03:41:30;;;;;;;2.60;1.77;;;11.30;99.90;;;11.20;100.00;99101.91;5262002;28;20453;-47
2023/10/28 03:44:02;;;;;;;4.47;1.98;;;11.20;99.90;;;11.17;100.00;99102.75;5247760;28;20511;-47
2023/10/28 03:46:35;;;;;;;2.50;1.75;;;11.20;99.90;;;11.16;100.00;99107.97;5247357;28;20048;-47
2023/10/28 03:49:07;;;;;;;3.15;1.80;;;11.20;99.90;;;11.13;100.00;99117.50;5247052;28;20133;-46
2023/10/28 03:51:40;;;;;;;2.65;1.83;;;11.10;99.90;;;11.12;100.00;99114.91;5247468;28;20048;-47
2023/10/28 03:54:15;;;;;;;2.42;1.83;;;11.10;99.90;;;11.10;100.00;99116.63;5243826;28;20040;-47
2023/10/28 03:56:49;;;;;;;2.70;1.70;;;11.10;99.90;;;11.06;100.00;99118.34;5243771;28;20041;-47
2023/10/28 03:59:22;;;;;;;2.63;1.88;;;11.10;99.90;;;11.06;100.00;99118.34;5244800;28;20060;-47
2023/10/28 04:01:55;;;;;;;2.80;1.63;;;11.00;99.90;;;11.01;100.00;99109.59;5264161;28;20419;-48
2023/10/28 04:04:27;;;;;;;1.95;1.33;;;11.00;99.90;;;10.98;100.00;99117.41;5244684;28;20052;-48
2023/10/28 04:06:59;;;;;;;1.88;1.20;;;11.00;99.90;;;10.97;100.00;99115.69;5245449;28;20127;-48
2023/10/28 04:09:32;;;;;;;1.70;1.15;;;11.00;99.90;;;10.96;100.00;99107.84;5245859;28;20059;-48
2023/10/28 04:12:09;;;;;;;1.55;1.15;;;11.00;99.90;;;10.93;100.00;99111.28;5246141;28;20178;-47
2023/10/28 04:14:42;;;;;;;0.95;0.88;;;11.00;99.90;;;10.91;100.00;99110.44;5246517;28;20392;-48
2023/10/28 04:17:14;;;;;;;1.35;1.10;;;10.90;99.90;;;10.88;100.00;99105.16;5243411;28;20044;-47
2023/10/28 04:19:47;;;;;;;1.17;1.00;;;10.90;99.90;;;10.85;100.00;99103.44;5246436;28;20044;-47
2023/10/28 04:22:19;;;;;;;2.28;1.02;;;10.90;99.90;;;10.85;100.00;99110.38;5247247;28;20075;-48
2023/10/28 04:24:51;;;;;;;1.42;1.00;;;10.90;99.90;;;10.84;100.00;99112.13;5246780;28;20056;-47
2023/10/28 04:27:25;;;;;;;1.20;1.10;;;10.90;99.90;;;10.85;100.00;99107.78;5246823;28;20531;-47
2023/10/28 04:29:57;;;;;;;2.15;1.00;;;10.90;99.90;;;10.86;100.00;99099.09;5245126;28;20051;-47
2023/10/28 04:32:30;;;;;;;0.88;0.85;;;10.90;99.90;;;10.87;100.00;99106.91;5244997;28;20068;-47
2023/10/28 04:35:02;;;;;;;0.82;0.82;;;10.90;99.90;;;10.88;100.00;99105.16;5246556;28;20052;-48
2023/10/28 04:37:35;;;;;;;1.75;0.88;;;10.90;99.90;;;10.88;100.00;99105.16;5244102;28;20047;-47
2023/10/28 04:40:09;;;;;;;1.45;0.80;;;10.90;99.90;;;10.88;100.00;99098.22;5244956;28;20056;-47
2023/10/28 04:42:42;;;;;;;0.98;0.60;;;10.90;99.90;;;10.90;100.00;99103.47;5245132;28;20067;-47
2023/10/28 04:45:15;;;;;;;0.63;0.63;;;10.90;99.90;;;10.91;100.00;99105.22;5246772;28;20048;-47
2023/10/28 04:47:48;;;;;;;0.73;0.73;;;10.90;99.90;;;10.91;100.00;99094.78;5246349;28;20044;-47
2023/10/28 04:50:20;;;;;;;1.73;0.77;;;10.90;99.90;;;10.94;100.00;99102.59;5246623;28;20094;-47
2023/10/28 04:52:53;;;;;;;1.60;0.88;;;11.00;99.90;;;10.93;100.00;99105.22;5250060;28;20048;-47
2023/10/28 04:55:25;;;;;;;0.93;0.70;;;11.00;99.90;;;10.94;100.00;99105.22;5246017;28;20155;-49
2023/10/28 04:57:59;;;;;;;0.60;0.60;;;10.90;99.90;;;10.96;100.00;99108.72;5244470;28;20499;-47
2023/10/28 05:00:31;;;;;;;0.93;0.77;;;11.00;99.90;;;10.96;100.00;99106.13;5244960;28;20063;-46
2023/10/28 05:03:04;;;;;;;1.15;1.02;;;11.00;99.90;;;10.97;100.00;99105.25;5244453;28;20059;-47
2023/10/28 05:05:37;;;;;;;1.55;1.27;;;11.00;99.90;;;10.99;100.00;99100.03;5244742;28;20052;-46
2023/10/28 05:08:13;;;;;;;1.20;1.02;;;11.00;99.90;;;11.00;100.00;99099.19;5246561;28;20541;-46
2023/10/28 05:10:46;;;;;;;1.67;1.10;;;11.00;99.90;;;10.99;100.00;99103.50;5243282;28;20320;-47
2023/10/28 05:13:20;;;;;;;2.42;1.10;;;11.00;99.90;;;11.00;100.00;99099.19;5243084;28;20040;-48
2023/10/28 05:15:52;;;;;;;2.70;1.70;;;11.00;99.90;;;10.99;100.00;99097.44;5240967;28;20044;-47
2023/10/28 05:18:25;;;;;;;1.52;1.30;;;11.00;99.90;;;10.99;100.00;99095.69;5246000;28;20414;-48
2023/10/28 05:20:58;;;;;;;2.28;1.00;;;11.00;99.90;;;10.97;100.00;99093.97;5242040;28;20565;-48
2023/10/28 05:23:30;;;;;;;2.00;1.00;;;11.00;99.90;;;10.97;100.00;99094.81;5246075;28;20048;-47
2023/10/28 05:26:04;;;;;;;1.63;0.90;;;11.00;99.90;;;10.96;100.00;99093.09;5260479;28;20106;-48
2023/10/28 05:28:38;;;;;;;1.02;0.70;;;11.00;99.90;;;10.97;100.00;99100.03;5245079;28;20093;-47
2023/10/28 05:31:10;;;;;;;0.57;0.52;;;11.00;99.90;;;10.98;100.00;99101.78;5243334;28;20078;-47
2023/10/28 05:33:42;;;;;;;1.73;0.80;;;11.00;99.90;;;10.98;100.00;99091.34;5240689;28;20056;-47
2023/10/28 05:36:16;;;;;;;1.85;0.70;;;11.00;99.90;;;10.99;100.00;99094.81;5245375;28;20389;-47
2023/10/28 05:38:48;;;;;;;1.83;0.73;;;11.00;99.90;;;10.96;100.00;99087.00;5244080;28;20093;-48
2023/10/28 05:41:20;;;;;;;2.45;1.00;;;11.00;99.90;;;10.95;100.00;99086.09;5257183;28;20079;-47
2023/10/28 05:43:54;;;;;;;1.38;0.70;;;11.00;99.90;;;10.95;100.00;99093.91;5247308;28;20044;-47
2023/10/28 05:46:26;;;;;;;1.17;0.70;;;11.00;99.90;;;10.96;100.00;99100.03;5244887;28;20048;-47
2023/10/28 05:49:00;;;;;;;2.05;0.73;;;11.00;99.90;;;10.96;100.00;99103.50;5244144;28;20047;-47
2023/10/28 05:51:35;;;;;;;0.95;0.63;;;11.00;99.90;;;10.95;100.00;99104.34;5249641;28;20036;-46
2023/10/28 05:54:09;;;;;;;1.00;0.90;;;11.00;99.90;;;10.97;100.00;99107.88;5248618;28;20055;-47
2023/10/28 05:56:42;;;;;;;0.95;0.52;;;11.00;99.90;;;10.98;100.00;99106.13;5244120;28;20059;-47
2023/10/28 05:59:15;;;;;;;1.35;0.80;;;11.00;99.90;;;10.98;100.00;99106.13;5248660;28;20048;-47
2023/10/28 06:01:48;;;;;;;2.35;0.90;;;11.00;99.90;;;10.95;100.00;99106.94;5249288;28;20048;-47
2023/10/28 06:04:23;;;;;;;1.13;0.60;;;11.10;99.90;;;10.96;100.00;99108.72;5249513;28;20040;-47
2023/10/28 06:06:56;;;;;;;2.42;0.73;;;11.00;99.90;;;10.99;100.00;99108.72;5265683;28;20311;-46
2023/10/28 06:09:28;;;;;;;2.03;1.10;;;11.10;99.90;;;10.99;100.00;99113.94;5246807;28;20053;-47
2023/10/28 06:12:01;;;;;;;1.08;0.70;;;11.10;99.90;;;11.00;100.00;99117.41;5248081;28;20071;-46
2023/10/28 06:14:35;;;;;;;1.33;1.20;;;11.10;99.90;;;10.98;100.00;99121.75;5266479;28;20066;-47
2023/10/28 06:17:07;;;;;;;1.98;0.73;;;11.00;99.90;;;11.00;100.00;99120.91;5249108;28;20048;-47
2023/10/28 06:19:40;;;;;;;2.25;1.08;;;11.10;99.90;;;11.00;100.00;99126.13;5248920;28;20055;-47
2023/10/28 06:22:13;;;;;;;1.83;0.90;;;11.10;99.90;;;11.00;100.00;99123.50;5253814;28;20452;-47
2023/10/28 06:24:45;;;;;;;1.38;1.15;;;11.10;99.90;;;11.00;100.00;99120.91;5246347;28;20045;-47
2023/10/28 06:27:17;;;;;;;2.83;1.02;;;11.00;99.90;;;11.02;100.00;99129.63;5253956;28;20530;-48
2023/10/28 06:29:52;;;;;;;2.10;0.80;;;11.10;99.90;;;11.05;100.00;99140.06;5248733;28;20052;-47
2023/10/28 06:32:30;;;;;;;2.17;0.77;;;11.10;99.90;;;11.05;100.00;99134.84;5251290;28;20552;-47
2023/10/28 06:35:03;;;;;;;1.70;0.93;;;11.10;99.90;;;11.06;100.00;99141.81;5247591;28;20048;-47
2023/10/28 06:37:36;;;;;;;1.40;0.77;;;11.10;99.90;;;11.08;100.00;99136.59;5247976;28;20043;-47
2023/10/28 06:40:10;;;;;;;2.22;0.80;;;11.10;99.90;;;11.11;100.00;99134.00;5246621;28;20134;-47
2023/10/28 06:42:43;;;;;;;3.40;1.00;;;11.10;99.90;;;11.10;100.00;99148.78;5245272;28;20044;-47
2023/10/28 06:45:17;;;;;;;1.45;0.80;;;11.10;99.90;;;11.09;100.00;99143.56;5244100;28;20631;-47
2023/10/28 06:47:50;;;;;;;1.85;1.08;;;11.10;99.90;;;11.11;100.00;99140.09;5248507;28;20044;-47
2023/10/28 06:50:25;;;;;;;2.60;0.98;;;11.20;99.90;;;11.11;100.00;99150.53;5248014;28;20090;-47
2023/10/28 06:52:59;;;;;;;2.05;0.73;;;11.20;99.90;;;11.12;100.00;99147.06;5248771;28;20059;-47
2023/10/28 06:55:32;;;;;;;4.20;0.95;;;11.20;99.90;;;11.11;100.00;99145.31;5250022;28;20048;-46
2023/10/28 06:58:04;;;;;;;1.10;0.93;;;11.20;99.90;;;11.12;100.00;99147.06;5248663;28;20063;-47
2023/10/28 07:00:38;;;;;;;1.40;1.13;;;11.20;99.90;;;11.13;100.00;99143.59;5244830;28;20506;-47
2023/10/28 07:03:14;;;;;;;1.52;0.95;;;11.20;99.90;;;11.16;100.00;99153.19;5243432;28;20059;-47
2023/10/28 07:05:47;;;;;;;1.60;0.73;;;11.20;99.90;;;11.19;100.00;99147.09;5243446;28;20052;-47
2023/10/28 07:08:20;;;;;;;1.52;0.90;;;11.30;99.90;;;11.21;100.00;99154.06;5262638;28;20342;-47
2023/10/28 07:10:53;;;;;;;2.33;0.93;;;11.20;99.90;;;11.23;100.00;99154.97;5245573;28;20042;-47
2023/10/28 07:13:26;;;;;;;1.75;1.00;;;11.30;99.90;;;11.25;100.00;99154.97;5247930;28;20507;-47
2023/10/28 07:16:04;;;;;;;0.80;0.70;;;11.30;99.90;;;11.26;100.00;99149.75;5247385;28;20055;-47
2023/10/28 07:18:37;;;;;;;1.20;0.90;;;11.30;99.90;;;11.26;100.00;99159.31;5263938;28;20048;-47
2023/10/28 07:21:09;;;;;;;1.48;0.90;;;11.30;99.90;;;11.26;100.00;99154.97;5246462;28;20079;-47
2023/10/28 07:23:42;;;;;;;3.15;1.23;;;11.30;99.90;;;11.37;100.00;99162.84;5248038;28;20646;-46
2023/10/28 07:26:14;;;;;;;2.47;1.40;;;11.40;99.90;;;12.01;100.00;99160.56;5245997;28;20044;-47
2023/10/28 07:28:46;;;;;;;1.65;1.23;;;11.90;99.90;;;12.08;100.00;99154.50;5246545;28;20048;-46
2023/10/28 07:31:23;;;;;;;1.27;1.00;;;12.00;99.90;;;11.98;100.00;99162.28;5247180;28;20578;-47
2023/10/28 07:33:57;;;;;;;1.50;1.13;;;12.00;99.90;;;11.84;100.00;99165.72;5246916;28;20048;-47
2023/10/28 07:36:29;;;;;;;2.15;1.08;;;12.00;99.90;;;11.77;100.00;99163.06;5248342;28;20131;-47
2023/10/28 07:39:03;;;;;;;2.10;0.80;;;11.90;99.90;;;11.66;100.00;99166.47;5267214;28;20052;-46
2023/10/28 07:41:35;;;;;;;4.53;0.82;;;11.80;99.90;;;11.56;100.00;99169.91;5244584;28;20048;-45
2023/10/28 07:44:07;;;;;;;0.90;0.70;;;11.70;99.90;;;11.51;100.00;99175.97;5248038;28;20056;-46
2023/10/28 07:46:41;;;;;;;1.55;0.90;;;11.60;99.90;;;11.47;100.00;99175.06;5247895;28;20050;-46
2023/10/28 07:49:14;;;;;;;0.82;0.82;;;11.60;99.90;;;11.46;100.00;99170.72;5251884;28;20121;-46
2023/10/28 07:51:46;;;;;;;1.13;0.73;;;11.60;99.90;;;11.44;100.00;99169.84;5249393;28;20522;-46
2023/10/28 07:54:18;;;;;;;1.45;0.80;;;11.50;99.90;;;11.44;100.00;99179.41;5247113;28;20048;-46
2023/10/28 07:56:51;;;;;;;0.52;0.52;;;11.50;99.90;;;11.45;100.00;99174.19;5244504;28;20403;-46
2023/10/28 07:59:25;;;;;;;1.23;0.60;;;11.50;99.90;;;11.46;100.00;99183.78;5244769;28;20415;-46
2023/10/28 08:02:00;;;;;;;2.58;1.00;;;11.50;99.90;;;11.47;100.00;99180.28;5251740;28;20437;-46
2023/10/28 08:04:32;;;;;;;1.02;0.93;;;11.50;99.90;;;11.49;100.00;99183.81;5245926;28;20063;-47
2023/10/28 08:07:04;;;;;;;2.50;1.65;;;11.50;99.90;;;11.51;100.00;99184.66;5246265;28;20051;-46
2023/10/28 08:09:37;;;;;;;2.60;1.30;;;11.60;99.90;;;11.54;100.00;99187.31;5247371;28;20048;-46
2023/10/28 08:12:09;;;;;;;1.55;1.17;;;11.60;99.90;;;11.56;100.00;99196.03;5246045;28;20723;-46
2023/10/28 08:14:44;;;;;;;1.27;1.10;;;11.60;99.90;;;11.55;100.00;99194.28;5244510;28;20040;-46
2023/10/28 08:17:17;;;;;;;1.70;1.15;;;11.60;99.90;;;11.58;100.00;99193.41;5245596;28;20052;-46
2023/10/28 08:19:50;;;;;;;1.67;1.13;;;11.60;99.90;;;11.57;100.00;99187.31;5247307;28;20127;-47
2023/10/28 08:22:24;;;;;;;1.48;1.00;;;11.60;99.90;;;11.57;100.00;99191.66;5256868;28;20049;-47
2023/10/28 08:24:56;;;;;;;1.25;0.88;;;11.60;99.90;;;11.59;100.00;99195.16;5245161;28;20093;-46
2023/10/28 08:27:29;;;;;;;1.23;0.80;;;11.60;99.90;;;11.63;100.00;99200.41;5246737;28;20054;-46
2023/10/28 08:30:02;;;;;;;1.27;0.82;;;11.60;99.90;;;11.64;100.00;99199.53;5244811;28;20039;-46
2023/10/28 08:32:38;;;;;;;3.28;1.45;;;11.70;99.90;;;11.65;100.00;99206.50;5260465;28;20040;-46
2023/10/28 08:35:10;;;;;;;2.03;1.40;;;11.70;99.90;;;11.65;100.00;99203.88;5243817;28;20047;-47
2023/10/28 08:37:43;;;;;;;2.38;1.77;;;11.70;99.90;;;11.68;100.00;99205.66;5243908;28;20511;-47
2023/10/28 08:40:17;;;;;;;2.33;1.30;;;11.20;99.90;;;11.71;100.00;99210.00;5244341;28;20043;-47
2023/10/28 08:42:53;;;;;;;2.60;1.27;;;11.70;99.90;;;11.74;100.00;99203.06;5238544;28;20051;-47
2023/10/28 08:45:26;;;;;;;1.38;1.13;;;11.70;99.90;;;11.79;100.00;99210.91;5244003;28;20062;-46
2023/10/28 08:48:00;;;;;;;1.70;1.10;;;11.80;99.90;;;11.82;100.00;99213.56;5244776;28;20053;-46
2023/10/28 08:50:37;;;;;;;2.20;0.82;;;11.80;99.90;;;11.84;100.00;99222.28;5262856;28;20059;-46
2023/10/28 08:53:10;;;;;;;2.13;1.23;;;11.80;99.90;;;11.86;100.00;99226.63;5246193;28;20043;-46
2023/10/28 08:55:44;;;;;;;1.83;1.13;;;11.80;99.90;;;11.88;100.00;99224.94;5242119;28;20094;-46
2023/10/28 08:58:19;;;;;;;1.67;0.98;;;11.90;99.90;;;11.91;100.00;99229.28;5245803;28;20081;-46
2023/10/28 09:00:51;;;;;;;6.50;2.25;;;11.90;99.90;;;11.92;100.00;99237.09;5245143;28;20089;-46
2023/10/28 09:03:27;;;;;;;2.92;1.23;;;11.90;99.90;;;11.95;100.00;99236.28;5241616;28;20055;-48
2023/10/28 09:06:04;;;;;;;4.43;1.25;;;12.00;99.90;;;11.96;100.00;99240.63;5242434;28;20048;-46
2023/10/28 09:08:38;;;;;;;2.65;1.88;;;12.00;99.90;;;12.01;100.00;99245.88;5241103;28;20109;-46
2023/10/28 09:11:12;;;;;;;2.47;1.63;;;12.00;99.90;;;12.06;100.00;99234.59;5243922;28;20640;-47
2023/10/28 09:13:46;;;;;;;1.63;1.30;;;12.10;99.90;;;12.12;100.00;99242.41;5243878;28;20044;-46
2023/10/28 09:16:18;;;;;;;3.45;1.15;;;12.10;99.90;;;12.14;100.00;99240.69;5243122;28;20530;-46
2023/10/28 09:18:52;;;;;;;3.53;1.38;;;12.20;99.90;;;12.16;100.00;99241.56;5246691;28;20039;-46
2023/10/28 09:21:24;;;;;;;1.77;1.13;;;12.10;99.90;;;12.18;100.00;99237.22;5251730;28;20048;-46
2023/10/28 09:24:01;;;;;;;2.95;1.30;;;12.20;99.90;;;12.21;100.00;99249.44;5240926;28;20530;-46
2023/10/28 09:26:33;;;;;;;4.55;2.17;;;12.20;99.90;;;12.23;100.00;99251.16;5245152;28;20063;-46
2023/10/28 09:29:06;;;;;;;1.98;1.25;;;12.20;99.90;;;12.29;100.00;99246.84;5245416;28;20040;-46
2023/10/28 09:31:38;;;;;;;3.17;1.52;;;12.20;99.90;;;12.35;100.00;99257.31;5244195;28;20494;-46
2023/10/28 09:34:13;;;;;;;4.45;1.70;;;12.30;99.90;;;12.41;100.00;99247.75;5245178;28;20056;-46
2023/10/28 09:36:49;;;;;;;2.17;1.30;;;12.30;99.90;;;12.47;100.00;99241.69;5260849;28;20523;-46
2023/10/28 09:39:22;;;;;;;2.70;1.40;;;12.40;99.90;;;12.54;100.00;99251.28;5243322;28;20064;-47
2023/10/28 09:41:56;;;;;;;2.20;1.15;;;12.40;99.90;;;12.61;100.00;99253.03;5242921;28;20097;-46
2023/10/28 09:44:29;;;;;;;2.17;1.10;;;12.50;99.90;;;12.77;100.00;99261.75;5237603;28;20586;-46
2023/10/28 09:47:05;;;;;;;2.95;1.90;;;12.60;99.90;;;12.92;100.00;99258.31;5244232;28;20041;-48
2023/10/28 09:49:43;;;;;;;3.90;1.95;;;12.80;99.90;;;13.51;100.00;99247.84;5245074;28;20062;-51
2023/10/28 09:52:19;;;;;;;4.95;2.05;;;13.30;99.90;;;14.02;100.00;99256.47;5244912;28;20044;-46
2023/10/28 09:55:00;;;;;;;4.85;1.95;;;13.70;99.90;;;14.04;100.00;99259.94;5251718;28;20056;-47
2023/10/28 09:57:34;;;;;;;5.85;2.38;;;13.90;99.90;;;14.02;100.00;99255.59;5247040;28;20052;-47
2023/10/28 10:00:17;;;;;;;2.15;1.45;;;13.90;99.90;;;14.06;100.00;99246.81;5241324;28;20040;-46
2023/10/28 10:03:13;;;;;;;2.25;1.30;;;14.00;99.90;;;14.21;100.00;99257.22;5242949;28;20051;-47
2023/10/28 10:05:48;;;;;;;2.30;1.50;;;14.10;99.90;;;14.56;100.00;99256.25;5255790;28;20666;-47
2023/10/28 10:08:21;;;;;;;;;;;14.20;99.90;;;14.86;100.00;99258.63;5245135;28;20566;-47
2023/10/28 10:10:59;;;;;;;1.55;0.73;;;14.50;99.90;;;15.33;100.00;99265.31;5247017;28;20341;-46
2023/10/28 10:13:31;;;;;;;2.00;0.70;;;14.90;99.90;;;15.57;100.00;99258.94;5248067;28;20056;-46
2023/10/28 10:16:05;;;;;;;1.35;0.60;;;15.10;99.90;;;15.63;100.00;99266.78;5244276;28;20032;-46
2023/10/28 10:18:40;;;;;;;2.40;0.60;;;15.30;99.90;;;15.58;100.00;99260.66;5261255;28;20043;-45
2023/10/28 10:21:18;;;;;;;2.22;0.70;;;15.30;99.90;;;15.57;100.00;99263.31;5247830;28;20040;-46
2023/10/28 10:23:53;;;;;;;1.08;0.50;;;15.30;99.90;;;15.59;100.00;99266.81;5246499;28;20056;-47
2023/10/28 10:26:32;;;;;;;3.55;0.60;;;15.30;99.90;;;15.69;100.00;99271.09;5244830;28;20072;-46
2023/10/28 10:29:08;;;;;;;2.58;0.43;;;15.40;99.90;;;15.77;100.00;99261.38;5245267;28;20476;-47
2023/10/28 10:31:40;;;;;;;1.85;0.57;;;15.40;99.90;;;15.97;100.00;99269.94;5243053;28;20040;-47
2023/10/28 10:34:13;;;;;;;2.80;0.73;;;15.60;99.90;;;16.08;100.00;99268.94;5244535;28;20044;-48
2023/10/28 10:36:46;;;;;;;1.85;0.60;;;15.70;99.90;;;16.22;100.00;99270.50;5246327;28;20048;-47
2023/10/28 10:39:19;;;;;;;1.35;0.57;;;15.90;99.90;;;16.28;100.00;99275.69;5248752;28;20055;-46